West Acres, Pennsylvania
Current Conditions -  °F | °C
As of 10:03 PM on Monday 22 Dec 2014 (Local Time) from KSEG Reporting Station
Freezing Rain Freezing Rain  
Wind Chill:   Ceiling: 1200
Heat Index:   Visibility: 2mi
Dew Point:   Wind: 0mph
Humidity: 96%   Direction: NA
Pressure: 30.16"   Gusts: NA
Location:  40.9885°N, 76.9787°W
Report Text: KSEG 230303Z AUTO 00000KT 2SM -FZRA BR SCT006 OVC012 01/00 A3016 RMK AO2 RAB0256E03 P0000 I1000 T00060000
Loading
Personal Weather Stations






























Interactive Weather Map New forecast layout! Learn more

10-Day Weather Forecast

Advertisements
Track Severe Weather on mobile